Time;durP1;ratioP1;P1;durP2;ratioP2;P2;SDS_P1;SDS_P2;PMS_P1;PMS_P2;Temp;Humidity;BMP_temperature;BMP_pressure;BME280_temperature;BME280_humidity;BME280_pressure;Samples;Min_cycle;Max_cycle;Signal;HPM_P1;HPM_P2
2021/11/22 00:01:18;;;;;;;26.42;12.85;;;;;;;;;;5028151;28;20041;-71
2021/11/22 00:03:43;;;;;;;28.70;13.15;;;;;;;;;;5026977;28;20021;-71
2021/11/22 00:06:09;;;;;;;28.08;12.48;;;;;;;;;;5030671;28;20052;-70
2021/11/22 00:08:34;;;;;;;27.13;12.05;;;;;;;;;;5016687;28;20396;-69
2021/11/22 00:11:00;;;;;;;26.75;12.23;;;;;;;;;;5024320;28;20091;-71
2021/11/22 00:13:26;;;;;;;26.20;12.15;;;;;;;;;;5026335;28;20053;-69
2021/11/22 00:15:53;;;;;;;23.95;12.20;;;;;;;;;;5029211;28;20468;-70
2021/11/22 00:18:18;;;;;;;26.02;12.18;;;;;;;;;;5028388;28;20028;-69
2021/11/22 00:20:43;;;;;;;24.58;11.23;;;;;;;;;;5026427;28;20025;-70
2021/11/22 00:23:08;;;;;;;28.50;12.30;;;;;;;;;;5041157;28;20029;-70
2021/11/22 00:25:34;;;;;;;26.27;11.68;;;;;;;;;;5037825;28;20033;-70
2021/11/22 00:27:59;;;;;;;23.80;11.48;;;;;;;;;;5026125;28;20033;-70
2021/11/22 00:30:24;;;;;;;24.45;11.98;;;;;;;;;;5026102;28;20148;-70
2021/11/22 00:32:50;;;;;;;24.20;11.23;;;;;;;;;;5027867;28;20063;-71
2021/11/22 00:35:15;;;;;;;25.17;11.27;;;;;;;;;;5027882;28;20091;-70
2021/11/22 00:37:41;;;;;;;27.42;11.95;;;;;;;;;;5021958;28;20033;-71
2021/11/22 00:40:11;;;;;;;24.02;11.88;;;;;;;;;;5022489;28;20465;-70
2021/11/22 00:42:37;;;;;;;27.75;12.55;;;;;;;;;;5026645;28;20030;-70
2021/11/22 00:45:03;;;;;;;29.65;14.15;;;;;;;;;;5020821;28;20034;-69
2021/11/22 00:47:28;;;;;;;32.53;13.73;;;;;;;;;;5021243;28;20026;-70
2021/11/22 00:49:53;;;;;;;31.55;13.98;;;;;;;;;;5020805;28;20108;-70
2021/11/22 00:52:19;;;;;;;28.77;13.48;;;;;;;;;;5021013;28;20034;-69
2021/11/22 00:54:44;;;;;;;30.13;13.57;;;;;;;;;;5028406;28;20108;-69
2021/11/22 00:57:09;;;;;;;28.63;13.15;;;;;;;;;;5029376;28;20044;-70
2021/11/22 00:59:34;;;;;;;30.40;13.98;;;;;;;;;;5023391;28;20033;-70
2021/11/22 01:02:00;;;;;;;29.83;13.52;;;;;;;;;;5032360;28;20076;-69
2021/11/22 01:04:26;;;;;;;28.63;13.98;;;;;;;;;;5029622;28;20112;-71
2021/11/22 01:06:51;;;;;;;23.55;12.15;;;;;;;;;;5030729;28;20519;-70
2021/11/22 01:09:16;;;;;;;28.08;13.25;;;;;;;;;;5030916;28;20072;-69
2021/11/22 01:11:42;;;;;;;25.33;11.77;;;;;;;;;;5030010;28;20030;-70
2021/11/22 01:14:07;;;;;;;22.85;11.13;;;;;;;;;;5032193;28;20108;-71
2021/11/22 01:16:33;;;;;;;20.67;10.05;;;;;;;;;;5028707;28;20764;-69
2021/11/22 01:18:58;;;;;;;18.75;8.63;;;;;;;;;;5027418;28;20042;-69
2021/11/22 01:21:24;;;;;;;17.33;8.68;;;;;;;;;;5032899;28;20025;-70
2021/11/22 01:23:49;;;;;;;20.10;9.35;;;;;;;;;;5023850;28;20043;-70
2021/11/22 01:26:14;;;;;;;19.42;9.43;;;;;;;;;;5028405;28;20435;-71
2021/11/22 01:28:40;;;;;;;18.63;8.98;;;;;;;;;;5033657;28;20041;-71
2021/11/22 01:31:05;;;;;;;19.50;9.23;;;;;;;;;;5031250;28;20112;-70
2021/11/22 01:33:30;;;;;;;20.58;8.98;;;;;;;;;;5025884;28;20071;-70
2021/11/22 01:35:55;;;;;;;19.48;9.18;;;;;;;;;;5037213;28;20025;-70
2021/11/22 01:38:21;;;;;;;22.02;10.57;;;;;;;;;;5030340;28;20025;-71
2021/11/22 01:40:46;;;;;;;21.23;9.65;;;;;;;;;;5030268;28;20029;-69
2021/11/22 01:43:14;;;;;;;23.08;10.45;;;;;;;;;;5029735;28;20064;-70
2021/11/22 01:45:40;;;;;;;20.00;9.80;;;;;;;;;;5027465;28;20077;-70
2021/11/22 01:48:05;;;;;;;21.15;9.48;;;;;;;;;;5031607;28;20045;-70
2021/11/22 01:50:31;;;;;;;22.67;9.90;;;;;;;;;;5028939;28;20030;-70
2021/11/22 01:52:56;;;;;;;23.92;11.10;;;;;;;;;;5024669;28;20018;-69
2021/11/22 01:55:22;;;;;;;26.20;11.88;;;;;;;;;;5025699;28;20093;-70
2021/11/22 01:57:48;;;;;;;26.50;11.98;;;;;;;;;;5028148;28;20451;-70
2021/11/22 02:00:17;;;;;;;28.50;12.60;;;;;;;;;;5030787;28;20109;-69
2021/11/22 02:02:42;;;;;;;27.55;11.90;;;;;;;;;;5022302;28;20046;-70
2021/11/22 02:05:09;;;;;;;24.65;11.82;;;;;;;;;;5029484;28;20030;-69
2021/11/22 02:07:34;;;;;;;26.60;12.55;;;;;;;;;;5027149;28;20067;-69
2021/11/22 02:09:59;;;;;;;24.77;12.07;;;;;;;;;;5029060;28;20021;-69
2021/11/22 02:12:25;;;;;;;28.88;13.40;;;;;;;;;;5030774;28;20160;-69
2021/11/22 02:14:50;;;;;;;23.92;11.82;;;;;;;;;;5030016;28;20075;-70
2021/11/22 02:17:15;;;;;;;27.13;13.00;;;;;;;;;;5022817;28;20052;-70
2021/11/22 02:19:51;;;;;;;29.05;13.60;;;;;;;;;;5029357;28;20021;-70
2021/11/22 02:22:16;;;;;;;22.40;11.93;;;;;;;;;;5020395;28;20152;-70
2021/11/22 02:24:42;;;;;;;25.63;12.02;;;;;;;;;;5029833;28;20113;-69
2021/11/22 02:27:07;;;;;;;26.10;13.10;;;;;;;;;;5027763;28;20207;-70
2021/11/22 02:29:32;;;;;;;23.63;13.27;;;;;;;;;;5030137;28;20040;-69
2021/11/22 02:31:57;;;;;;;25.70;14.25;;;;;;;;;;5028310;28;20029;-69
2021/11/22 02:34:22;;;;;;;23.83;12.05;;;;;;;;;;5029085;28;20021;-69
2021/11/22 02:36:48;;;;;;;21.75;12.20;;;;;;;;;;5029464;28;20051;-69
2021/11/22 02:39:14;;;;;;;21.30;12.38;;;;;;;;;;5026862;28;20036;-69
2021/11/22 02:41:39;;;;;;;22.17;12.32;;;;;;;;;;5030503;28;20029;-69
2021/11/22 02:44:04;;;;;;;21.00;12.07;;;;;;;;;;5027337;28;20025;-70
2021/11/22 02:46:29;;;;;;;21.55;12.02;;;;;;;;;;5027638;28;20071;-70
2021/11/22 02:48:54;;;;;;;25.52;12.52;;;;;;;;;;5028443;28;20045;-69
2021/11/22 02:51:20;;;;;;;18.92;10.85;;;;;;;;;;5026209;28;20028;-69
2021/11/22 02:53:45;;;;;;;21.48;11.70;;;;;;;;;;5022991;28;20500;-69
2021/11/22 02:56:10;;;;;;;19.00;10.00;;;;;;;;;;5029822;28;20021;-69
2021/11/22 02:58:37;;;;;;;18.75;10.52;;;;;;;;;;5030760;28;20029;-69
2021/11/22 03:01:03;;;;;;;21.33;11.10;;;;;;;;;;5027055;28;20512;-69
2021/11/22 03:03:30;;;;;;;20.67;11.80;;;;;;;;;;5029890;28;20025;-69
2021/11/22 03:06:05;;;;;;;17.08;9.77;;;;;;;;;;5030156;28;20050;-71
2021/11/22 03:08:30;;;;;;;19.83;10.88;;;;;;;;;;5029614;28;20037;-69
2021/11/22 03:10:56;;;;;;;18.80;10.70;;;;;;;;;;5025554;28;20025;-70
2021/11/22 03:13:21;;;;;;;20.17;11.18;;;;;;;;;;5024767;28;20100;-69
2021/11/22 03:15:46;;;;;;;17.48;9.75;;;;;;;;;;5028690;28;20029;-70
2021/11/22 03:18:12;;;;;;;20.40;11.40;;;;;;;;;;5029338;28;20049;-70
2021/11/22 03:20:37;;;;;;;20.85;11.50;;;;;;;;;;5029114;28;20417;-70
2021/11/22 03:23:02;;;;;;;21.73;11.48;;;;;;;;;;5030309;28;20522;-69
2021/11/22 03:25:31;;;;;;;22.55;11.57;;;;;;;;;;5029526;28;20108;-70
2021/11/22 03:27:56;;;;;;;20.47;10.67;;;;;;;;;;5028250;28;20048;-70
2021/11/22 03:30:21;;;;;;;19.95;10.40;;;;;;;;;;5024925;28;20292;-70
2021/11/22 03:32:47;;;;;;;23.25;11.90;;;;;;;;;;5022783;28;20033;-69
2021/11/22 03:35:13;;;;;;;21.30;10.88;;;;;;;;;;5029742;28;20021;-70
2021/11/22 03:37:38;;;;;;;21.90;11.50;;;;;;;;;;5029191;28;20504;-69
2021/11/22 03:40:05;;;;;;;22.67;12.50;;;;;;;;;;5026237;28;20083;-69
2021/11/22 03:42:38;;;;;;;24.98;12.77;;;;;;;;;;5017449;28;20649;-70
2021/11/22 03:45:05;;;;;;;26.50;13.38;;;;;;;;;;5022032;28;20105;-69
2021/11/22 03:47:31;;;;;;;26.80;13.77;;;;;;;;;;5026360;28;20495;-69
2021/11/22 03:49:56;;;;;;;26.48;13.77;;;;;;;;;;5021925;28;20120;-71
2021/11/22 03:52:21;;;;;;;26.52;13.85;;;;;;;;;;5027847;28;20025;-69
2021/11/22 03:54:46;;;;;;;26.95;13.57;;;;;;;;;;5020452;28;20104;-70
2021/11/22 03:57:12;;;;;;;22.52;11.75;;;;;;;;;;5032882;28;20037;-71
2021/11/22 03:59:37;;;;;;;25.10;13.07;;;;;;;;;;5025229;28;20473;-69
2021/11/22 04:02:03;;;;;;;27.90;14.52;;;;;;;;;;5031191;28;20132;-69
2021/11/22 04:04:28;;;;;;;28.58;14.45;;;;;;;;;;5027513;28;20535;-69
2021/11/22 04:06:53;;;;;;;30.35;15.55;;;;;;;;;;5027979;28;20516;-69
2021/11/22 04:09:18;;;;;;;28.90;14.63;;;;;;;;;;5029495;28;20037;-70
2021/11/22 04:11:44;;;;;;;29.45;15.18;;;;;;;;;;5024694;28;20021;-69
2021/11/22 04:14:09;;;;;;;31.13;15.20;;;;;;;;;;5027368;28;20021;-70
2021/11/22 04:16:34;;;;;;;27.73;14.55;;;;;;;;;;5023427;28;20025;-70
2021/11/22 04:19:00;;;;;;;28.85;15.65;;;;;;;;;;5028271;28;20505;-70
2021/11/22 04:21:25;;;;;;;28.73;15.32;;;;;;;;;;5029163;28;20033;-70
2021/11/22 04:23:51;;;;;;;32.20;16.20;;;;;;;;;;5021016;28;20033;-70
2021/11/22 04:26:18;;;;;;;27.48;14.13;;;;;;;;;;5021223;28;20024;-70
2021/11/22 04:28:43;;;;;;;28.63;15.70;;;;;;;;;;5025685;28;20037;-70
2021/11/22 04:31:09;;;;;;;29.55;14.77;;;;;;;;;;5023510;28;20025;-70
2021/11/22 04:33:36;;;;;;;30.13;16.05;;;;;;;;;;5021610;28;20108;-69
2021/11/22 04:36:01;;;;;;;30.48;15.32;;;;;;;;;;5022924;28;20076;-70
2021/11/22 04:38:27;;;;;;;31.70;16.90;;;;;;;;;;5026440;28;20559;-69
2021/11/22 04:40:52;;;;;;;30.75;16.42;;;;;;;;;;5036585;28;20032;-69
2021/11/22 04:43:17;;;;;;;32.17;17.10;;;;;;;;;;5027133;28;20056;-70
2021/11/22 04:45:42;;;;;;;30.63;15.80;;;;;;;;;;5025089;28;20056;-70
2021/11/22 04:48:08;;;;;;;30.75;16.67;;;;;;;;;;5028159;28;20063;-69
2021/11/22 04:50:34;;;;;;;33.75;16.73;;;;;;;;;;5025110;28;20080;-70
2021/11/22 04:53:01;;;;;;;35.25;17.08;;;;;;;;;;5023193;28;20036;-70
2021/11/22 04:55:26;;;;;;;35.17;17.77;;;;;;;;;;5020331;28;20033;-70
2021/11/22 04:57:51;;;;;;;39.67;20.13;;;;;;;;;;5026450;28;20041;-69
2021/11/22 05:00:18;;;;;;;36.15;17.70;;;;;;;;;;5024400;28;20025;-69
2021/11/22 05:02:45;;;;;;;37.25;17.52;;;;;;;;;;5027340;28;20465;-71
2021/11/22 05:05:11;;;;;;;35.65;17.75;;;;;;;;;;5025761;28;20025;-70
2021/11/22 05:07:37;;;;;;;38.70;19.17;;;;;;;;;;5026156;28;20033;-70
2021/11/22 05:10:03;;;;;;;39.05;17.75;;;;;;;;;;5027224;28;20036;-69
2021/11/22 05:12:28;;;;;;;36.10;18.42;;;;;;;;;;5026202;28;20080;-70
2021/11/22 05:14:54;;;;;;;37.72;18.45;;;;;;;;;;5022910;28;20485;-69
2021/11/22 05:17:19;;;;;;;35.75;16.77;;;;;;;;;;5028471;28;20083;-70
2021/11/22 05:19:44;;;;;;;39.47;17.55;;;;;;;;;;5026481;28;20078;-70
2021/11/22 05:22:12;;;;;;;37.38;17.85;;;;;;;;;;5027590;28;20108;-70
2021/11/22 05:24:38;;;;;;;33.92;16.88;;;;;;;;;;5021273;28;20082;-70
2021/11/22 05:27:04;;;;;;;36.53;16.60;;;;;;;;;;5021952;28;20139;-69
2021/11/22 05:29:30;;;;;;;35.97;17.27;;;;;;;;;;5027750;28;20085;-69
2021/11/22 05:31:55;;;;;;;40.15;18.20;;;;;;;;;;5022041;28;20022;-70
2021/11/22 05:34:20;;;;;;;38.78;17.60;;;;;;;;;;5020741;28;20041;-70
2021/11/22 05:36:46;;;;;;;38.78;17.25;;;;;;;;;;5024551;28;20029;-70
2021/11/22 05:39:12;;;;;;;37.60;18.05;;;;;;;;;;5023232;28;20021;-70
2021/11/22 05:41:37;;;;;;;40.60;18.35;;;;;;;;;;5024173;28;20014;-70
2021/11/22 05:44:03;;;;;;;45.63;19.20;;;;;;;;;;5029622;28;20026;-70
2021/11/22 05:46:28;;;;;;;37.10;16.63;;;;;;;;;;5021355;28;20048;-70
2021/11/22 05:48:53;;;;;;;32.97;15.18;;;;;;;;;;5026121;28;20117;-69
2021/11/22 05:51:19;;;;;;;35.00;16.08;;;;;;;;;;5028089;28;20101;-69
2021/11/22 05:53:48;;;;;;;37.72;16.77;;;;;;;;;;5023121;28;20421;-69
2021/11/22 05:56:15;;;;;;;34.95;16.80;;;;;;;;;;5030698;28;20083;-71
2021/11/22 05:58:41;;;;;;;38.10;17.90;;;;;;;;;;5029238;28;20037;-70
2021/11/22 06:01:06;;;;;;;35.42;16.50;;;;;;;;;;5027947;28;20438;-69
2021/11/22 06:03:32;;;;;;;39.80;17.23;;;;;;;;;;5024613;28;20037;-69
2021/11/22 06:05:57;;;;;;;38.47;16.58;;;;;;;;;;5031080;28;20065;-62
2021/11/22 06:08:23;;;;;;;34.58;15.65;;;;;;;;;;5031228;28;20088;-62
2021/11/22 06:10:49;;;;;;;36.22;15.90;;;;;;;;;;5030995;28;20034;-62
2021/11/22 06:13:15;;;;;;;35.90;16.55;;;;;;;;;;5031113;28;20017;-64
2021/11/22 06:15:41;;;;;;;37.65;17.23;;;;;;;;;;5030380;28;20025;-65
2021/11/22 06:18:06;;;;;;;42.70;18.15;;;;;;;;;;5024530;28;20036;-63
2021/11/22 06:20:31;;;;;;;35.70;14.93;;;;;;;;;;5027580;28;20049;-63
2021/11/22 06:22:57;;;;;;;41.55;16.65;;;;;;;;;;5029858;28;20065;-63
2021/11/22 06:25:22;;;;;;;35.83;15.43;;;;;;;;;;5029796;28;20059;-62
2021/11/22 06:27:47;;;;;;;35.42;14.68;;;;;;;;;;5030503;28;20025;-62
2021/11/22 06:30:13;;;;;;;36.28;15.40;;;;;;;;;;5027203;28;20030;-63
2021/11/22 06:32:38;;;;;;;31.25;14.07;;;;;;;;;;5017323;28;20020;-62
2021/11/22 06:35:04;;;;;;;31.52;14.68;;;;;;;;;;5024829;28;20022;-63
2021/11/22 06:37:31;;;;;;;33.05;14.25;;;;;;;;;;5028312;28;20014;-63
2021/11/22 06:39:57;;;;;;;32.88;14.50;;;;;;;;;;5024518;28;20044;-62
2021/11/22 06:42:22;;;;;;;32.22;13.50;;;;;;;;;;5028099;28;20025;-64
2021/11/22 06:44:48;;;;;;;27.20;13.32;;;;;;;;;;5023579;28;20021;-62
2021/11/22 06:47:13;;;;;;;28.80;12.88;;;;;;;;;;5027572;28;20040;-61
2021/11/22 06:49:39;;;;;;;30.90;13.93;;;;;;;;;;5029820;28;20045;-62
2021/11/22 06:52:04;;;;;;;34.65;13.77;;;;;;;;;;5030758;28;20160;-63
2021/11/22 06:54:29;;;;;;;32.35;14.00;;;;;;;;;;5025402;28;20018;-63
2021/11/22 06:56:54;;;;;;;33.20;14.38;;;;;;;;;;5020717;28;20034;-64
2021/11/22 06:59:20;;;;;;;34.67;15.30;;;;;;;;;;5029882;28;20499;-64
2021/11/22 07:01:45;;;;;;;34.75;14.48;;;;;;;;;;5028756;28;20022;-63
2021/11/22 07:04:10;;;;;;;36.20;15.55;;;;;;;;;;5023392;28;20045;-63
2021/11/22 07:06:35;;;;;;;35.83;15.38;;;;;;;;;;5023380;28;20045;-63
2021/11/22 07:09:01;;;;;;;38.88;16.33;;;;;;;;;;5028232;28;20041;-63
2021/11/22 07:11:26;;;;;;;33.15;15.38;;;;;;;;;;5029482;28;20021;-62
2021/11/22 07:13:51;;;;;;;39.15;16.75;;;;;;;;;;5029383;28;20055;-64
2021/11/22 07:16:17;;;;;;;37.72;16.25;;;;;;;;;;5029468;28;20068;-64
2021/11/22 07:18:42;;;;;;;33.85;15.00;;;;;;;;;;5024832;28;20519;-63
2021/11/22 07:21:07;;;;;;;29.75;13.45;;;;;;;;;;5023537;28;20109;-64
2021/11/22 07:23:33;;;;;;;32.88;14.30;;;;;;;;;;5029939;28;20108;-63
2021/11/22 07:25:58;;;;;;;27.50;13.05;;;;;;;;;;5028794;28;20117;-64
2021/11/22 07:28:24;;;;;;;30.17;13.60;;;;;;;;;;5028770;28;20051;-63
2021/11/22 07:30:49;;;;;;;28.67;13.70;;;;;;;;;;5029111;28;20068;-63
2021/11/22 07:33:15;;;;;;;27.92;13.77;;;;;;;;;;5029507;28;20021;-62
2021/11/22 07:35:40;;;;;;;30.20;12.57;;;;;;;;;;5029876;28;20013;-63
2021/11/22 07:38:06;;;;;;;30.73;14.32;;;;;;;;;;5029428;28;20064;-62
2021/11/22 07:40:31;;;;;;;29.95;13.23;;;;;;;;;;5021964;28;20033;-64
2021/11/22 07:42:57;;;;;;;32.33;15.88;;;;;;;;;;5028709;28;20037;-63
2021/11/22 07:45:23;;;;;;;32.03;14.43;;;;;;;;;;5029404;28;20025;-62
2021/11/22 07:47:49;;;;;;;32.33;15.00;;;;;;;;;;5028624;28;20025;-64
2021/11/22 07:50:14;;;;;;;31.58;15.15;;;;;;;;;;5029095;28;20021;-63
2021/11/22 07:52:40;;;;;;;27.02;13.68;;;;;;;;;;5029441;28;20026;-64
2021/11/22 07:55:05;;;;;;;30.52;13.70;;;;;;;;;;5029324;28;20075;-64
2021/11/22 07:57:31;;;;;;;28.55;14.15;;;;;;;;;;5027157;28;20092;-63
2021/11/22 07:59:56;;;;;;;27.50;13.25;;;;;;;;;;5031789;28;20108;-64
2021/11/22 08:02:21;;;;;;;30.63;15.15;;;;;;;;;;5029647;28;20021;-62
2021/11/22 08:04:47;;;;;;;29.55;14.23;;;;;;;;;;5029044;28;20101;-64
2021/11/22 08:07:16;;;;;;;30.08;14.70;;;;;;;;;;5026620;28;20156;-64
2021/11/22 08:09:56;;;;;;;31.10;13.75;;;;;;;;;;5026827;28;20522;-62
2021/11/22 08:12:27;;;;;;;28.02;13.20;;;;;;;;;;5029357;28;20457;-63
2021/11/22 08:14:57;;;;;;;29.73;13.55;;;;;;;;;;5028878;28;20017;-63
2021/11/22 08:17:23;;;;;;;29.13;14.10;;;;;;;;;;5028918;28;20037;-63
2021/11/22 08:19:48;;;;;;;29.65;14.13;;;;;;;;;;5027106;28;20033;-63
2021/11/22 08:22:13;;;;;;;32.03;14.45;;;;;;;;;;5028838;28;20066;-63
2021/11/22 08:24:39;;;;;;;31.02;14.27;;;;;;;;;;5029180;28;20033;-64
2021/11/22 08:27:04;;;;;;;30.10;13.80;;;;;;;;;;5028561;28;20013;-63
2021/11/22 08:29:30;;;;;;;33.45;14.30;;;;;;;;;;5028302;28;20048;-63
2021/11/22 08:31:55;;;;;;;30.92;15.10;;;;;;;;;;5028832;28;20022;-63
2021/11/22 08:34:20;;;;;;;30.63;15.02;;;;;;;;;;5028763;28;20453;-63
2021/11/22 08:36:45;;;;;;;33.08;15.25;;;;;;;;;;5028994;28;20026;-62
2021/11/22 08:39:11;;;;;;;32.58;15.18;;;;;;;;;;5026959;28;20033;-63
2021/11/22 08:41:37;;;;;;;33.50;14.75;;;;;;;;;;5022100;28;20108;-63
2021/11/22 08:44:02;;;;;;;36.65;15.32;;;;;;;;;;5028220;28;20029;-62
2021/11/22 08:46:28;;;;;;;34.35;15.88;;;;;;;;;;5028627;28;20017;-64
2021/11/22 08:48:54;;;;;;;33.33;15.68;;;;;;;;;;5028200;28;20077;-63
2021/11/22 08:51:19;;;;;;;34.08;15.65;;;;;;;;;;5027268;28;20057;-63
2021/11/22 08:53:44;;;;;;;36.75;16.65;;;;;;;;;;5028433;28;20508;-63
2021/11/22 08:56:10;;;;;;;33.58;14.50;;;;;;;;;;5028433;28;20396;-63
2021/11/22 08:58:35;;;;;;;28.30;13.82;;;;;;;;;;5028041;28;20026;-63
2021/11/22 09:01:00;;;;;;;29.13;14.07;;;;;;;;;;5023493;28;20018;-62
2021/11/22 09:03:26;;;;;;;33.15;13.98;;;;;;;;;;5028290;28;20026;-63
2021/11/22 09:05:51;;;;;;;31.70;14.50;;;;;;;;;;5028209;28;20136;-63
2021/11/22 09:08:16;;;;;;;35.47;14.82;;;;;;;;;;5028300;28;20021;-63
2021/11/22 09:10:41;;;;;;;35.35;15.43;;;;;;;;;;5028684;28;20064;-64
2021/11/22 09:13:07;;;;;;;32.67;13.75;;;;;;;;;;5024098;28;20021;-64
2021/11/22 09:15:32;;;;;;;29.63;14.40;;;;;;;;;;5032909;28;20025;-63
2021/11/22 09:17:58;;;;;;;33.05;15.43;;;;;;;;;;5032470;28;20106;-63
2021/11/22 09:20:24;;;;;;;32.22;14.65;;;;;;;;;;5032507;28;20025;-62
2021/11/22 09:22:49;;;;;;;33.17;14.88;;;;;;;;;;5026404;28;20033;-66
2021/11/22 09:25:15;;;;;;;33.47;15.77;;;;;;;;;;5032129;28;20021;-63
2021/11/22 09:27:40;;;;;;;32.25;13.77;;;;;;;;;;5032036;28;20040;-64
2021/11/22 09:30:06;;;;;;;32.90;14.60;;;;;;;;;;5032698;28;20607;-63
2021/11/22 09:32:31;;;;;;;26.40;13.05;;;;;;;;;;5031656;28;20074;-63
2021/11/22 09:34:57;;;;;;;28.02;12.43;;;;;;;;;;5031591;28;20037;-64
2021/11/22 09:37:22;;;;;;;26.58;12.73;;;;;;;;;;5032084;28;20025;-63
2021/11/22 09:39:48;;;;;;;28.48;12.55;;;;;;;;;;5031145;28;20036;-63
2021/11/22 09:42:14;;;;;;;27.83;13.50;;;;;;;;;;5031866;28;20485;-63
2021/11/22 09:44:39;;;;;;;27.08;13.15;;;;;;;;;;5025494;28;20030;-63
2021/11/22 09:47:04;;;;;;;26.08;12.40;;;;;;;;;;5031902;28;20044;-63
2021/11/22 09:49:29;;;;;;;25.00;12.77;;;;;;;;;;5030689;28;20052;-63
2021/11/22 09:51:56;;;;;;;26.67;12.70;;;;;;;;;;5031842;28;20044;-63
2021/11/22 09:54:21;;;;;;;25.73;12.35;;;;;;;;;;5026429;28;20044;-62
2021/11/22 09:56:49;;;;;;;25.02;11.85;;;;;;;;;;5031461;28;20381;-63
2021/11/22 09:59:15;;;;;;;32.70;14.57;;;;;;;;;;5031327;28;20060;-63
2021/11/22 10:01:40;;;;;;;29.00;12.65;;;;;;;;;;5035118;28;20029;-62
2021/11/22 10:04:13;;;;;;;29.45;12.52;;;;;;;;;;5031316;28;20092;-63
2021/11/22 10:06:44;;;;;;;25.08;12.13;;;;;;;;;;5031336;28;20432;-64
2021/11/22 10:09:29;;;;;;;30.60;13.18;;;;;;;;;;5031315;28;20040;-64
2021/11/22 10:11:55;;;;;;;28.05;12.95;;;;;;;;;;5030768;28;20021;-63
2021/11/22 10:14:34;;;;;;;27.73;13.32;;;;;;;;;;5031292;28;20029;-63
2021/11/22 10:16:59;;;;;;;26.38;12.98;;;;;;;;;;5031010;28;20026;-62
2021/11/22 10:19:24;;;;;;;27.17;12.73;;;;;;;;;;5031520;28;20029;-63
2021/11/22 10:21:50;;;;;;;28.75;13.15;;;;;;;;;;5031033;28;20057;-62
2021/11/22 10:24:15;;;;;;;27.88;13.07;;;;;;;;;;5028900;28;20083;-63
2021/11/22 10:26:40;;;;;;;28.08;12.02;;;;;;;;;;5028880;28;20062;-63
2021/11/22 10:29:05;;;;;;;28.40;12.45;;;;;;;;;;5031258;28;20129;-63
2021/11/22 10:31:32;;;;;;;25.20;13.35;;;;;;;;;;5030770;28;20025;-63
2021/11/22 10:33:57;;;;;;;38.50;15.10;;;;;;;;;;5030914;28;20481;-62
2021/11/22 10:36:24;;;;;;;28.73;13.55;;;;;;;;;;5029090;28;20044;-64
2021/11/22 10:38:54;;;;;;;25.20;12.52;;;;;;;;;;5030973;28;20372;-64
2021/11/22 10:41:22;;;;;;;27.88;12.93;;;;;;;;;;5031225;28;20045;-63
2021/11/22 10:43:52;;;;;;;28.02;13.35;;;;;;;;;;5028442;28;20358;-63
2021/11/22 10:46:22;;;;;;;32.83;14.38;;;;;;;;;;5030532;28;20033;-62
2021/11/22 10:48:50;;;;;;;27.02;13.73;;;;;;;;;;5022228;28;20036;-62
2021/11/22 10:51:16;;;;;;;28.17;12.82;;;;;;;;;;5030884;28;20048;-63
2021/11/22 10:53:43;;;;;;;32.53;14.18;;;;;;;;;;5030404;28;20480;-64
2021/11/22 10:56:10;;;;;;;29.50;13.70;;;;;;;;;;5030850;28;20021;-63
2021/11/22 10:58:40;;;;;;;31.92;14.68;;;;;;;;;;5026837;28;20022;-63
2021/11/22 11:01:16;;;;;;;29.20;14.27;;;;;;;;;;5030191;28;20018;-65
2021/11/22 11:03:52;;;;;;;25.90;12.63;;;;;;;;;;5030044;28;20060;-63
2021/11/22 11:06:17;;;;;;;30.50;13.73;;;;;;;;;;5030187;28;20045;-63
2021/11/22 11:08:42;;;;;;;33.03;14.13;;;;;;;;;;5028436;28;20033;-64
2021/11/22 11:11:09;;;;;;;32.35;14.88;;;;;;;;;;5030433;28;20040;-62
2021/11/22 11:13:41;;;;;;;34.55;14.05;;;;;;;;;;5029833;28;20032;-63
2021/11/22 11:16:07;;;;;;;31.52;14.48;;;;;;;;;;5029905;28;20021;-62
2021/11/22 11:18:33;;;;;;;33.67;14.13;;;;;;;;;;5029943;28;20025;-63
2021/11/22 11:20:58;;;;;;;32.28;14.10;;;;;;;;;;5027710;28;20893;-63
2021/11/22 11:23:23;;;;;;;29.00;13.60;;;;;;;;;;5029972;28;20033;-63
2021/11/22 11:25:49;;;;;;;34.90;14.65;;;;;;;;;;5029146;28;20124;-63
2021/11/22 11:28:15;;;;;;;34.20;15.68;;;;;;;;;;5029943;28;20024;-63
2021/11/22 11:30:40;;;;;;;34.95;15.05;;;;;;;;;;5027475;28;20033;-62
2021/11/22 11:33:05;;;;;;;30.02;13.45;;;;;;;;;;5029688;28;20078;-63
2021/11/22 11:35:33;;;;;;;27.42;13.00;;;;;;;;;;5029524;28;20021;-63
2021/11/22 11:38:07;;;;;;;30.02;13.60;;;;;;;;;;5029815;28;20034;-62
2021/11/22 11:40:51;;;;;;;27.38;13.40;;;;;;;;;;5026528;28;20018;-63
2021/11/22 11:43:16;;;;;;;30.58;13.38;;;;;;;;;;5029669;28;20385;-62
2021/11/22 11:45:44;;;;;;;30.48;14.20;;;;;;;;;;5029197;28;20021;-63
2021/11/22 11:48:21;;;;;;;29.55;14.05;;;;;;;;;;5029240;28;20068;-63
2021/11/22 11:50:46;;;;;;;32.17;14.45;;;;;;;;;;5027968;28;20034;-63
2021/11/22 11:53:13;;;;;;;28.15;13.48;;;;;;;;;;5028449;28;20354;-63
2021/11/22 11:55:39;;;;;;;27.77;12.77;;;;;;;;;;5029198;28;20487;-65
2021/11/22 11:58:25;;;;;;;26.85;13.48;;;;;;;;;;5029434;28;20112;-64
2021/11/22 12:00:55;;;;;;;26.83;12.85;;;;;;;;;;5022653;28;20025;-64
2021/11/22 12:03:21;;;;;;;30.50;14.75;;;;;;;;;;5027182;28;20030;-63
2021/11/22 12:05:47;;;;;;;33.63;14.55;;;;;;;;;;5011294;28;20049;-63
2021/11/22 12:08:20;;;;;;;34.10;15.40;;;;;;;;;;5028731;28;20497;-64
2021/11/22 12:10:45;;;;;;;35.47;16.02;;;;;;;;;;5022604;28;20034;-64
2021/11/22 12:13:10;;;;;;;33.25;15.18;;;;;;;;;;5025490;28;20045;-63
2021/11/22 12:15:43;;;;;;;33.40;14.93;;;;;;;;;;5028673;28;20017;-63
2021/11/22 12:18:26;;;;;;;31.27;14.90;;;;;;;;;;5029162;28;20033;-64
2021/11/22 12:21:12;;;;;;;30.92;15.18;;;;;;;;;;5028922;28;20090;-64
2021/11/22 12:23:40;;;;;;;33.40;14.13;;;;;;;;;;5025158;28;20029;-64
2021/11/22 12:26:06;;;;;;;30.40;14.13;;;;;;;;;;5028985;28;20109;-63
2021/11/22 12:28:31;;;;;;;31.70;14.45;;;;;;;;;;5029133;28;20114;-63
2021/11/22 12:31:04;;;;;;;33.63;15.27;;;;;;;;;;5028766;28;20044;-63
2021/11/22 12:33:29;;;;;;;29.88;14.90;;;;;;;;;;5026109;28;20037;-63
2021/11/22 12:35:56;;;;;;;30.63;14.38;;;;;;;;;;5028763;28;20020;-63
2021/11/22 12:38:32;;;;;;;32.92;15.25;;;;;;;;;;5028527;28;20079;-64
2021/11/22 12:41:05;;;;;;;27.08;13.60;;;;;;;;;;5028698;28;20079;-63
2021/11/22 12:43:44;;;;;;;27.40;13.35;;;;;;;;;;5015656;28;20088;-63
2021/11/22 12:46:13;;;;;;;29.35;14.63;;;;;;;;;;5011430;28;20094;-62
2021/11/22 12:48:40;;;;;;;29.73;14.18;;;;;;;;;;5020043;28;20037;-63
2021/11/22 12:51:06;;;;;;;29.23;14.55;;;;;;;;;;5018926;28;20021;-62
2021/11/22 12:53:32;;;;;;;30.42;14.40;;;;;;;;;;5024316;28;20025;-63
2021/11/22 12:55:57;;;;;;;28.75;13.55;;;;;;;;;;5019258;28;20092;-63
2021/11/22 12:58:26;;;;;;;26.05;13.70;;;;;;;;;;5022146;28;20045;-63
2021/11/22 13:00:53;;;;;;;28.88;14.32;;;;;;;;;;5030380;28;20037;-63
2021/11/22 13:03:21;;;;;;;28.00;14.25;;;;;;;;;;5029492;28;20072;-64
2021/11/22 13:05:52;;;;;;;29.50;14.40;;;;;;;;;;5026153;28;20048;-63
2021/11/22 13:08:17;;;;;;;28.25;14.23;;;;;;;;;;5027866;28;20120;-64
2021/11/22 13:10:44;;;;;;;28.83;14.65;;;;;;;;;;5030501;28;20108;-64
2021/11/22 13:13:11;;;;;;;24.20;12.15;;;;;;;;;;5026371;28;20080;-63
2021/11/22 13:16:03;;;;;;;29.50;13.88;;;;;;;;;;5019795;28;20053;-63
2021/11/22 13:18:30;;;;;;;25.65;12.27;;;;;;;;;;5026574;28;20033;-63
2021/11/22 13:20:56;;;;;;;27.35;12.93;;;;;;;;;;5025661;28;20835;-63
2021/11/22 13:23:23;;;;;;;27.83;13.35;;;;;;;;;;5024570;28;20084;-64
2021/11/22 13:25:48;;;;;;;26.42;13.85;;;;;;;;;;5028038;28;20479;-63
2021/11/22 13:28:15;;;;;;;29.88;14.60;;;;;;;;;;5021780;28;20058;-62
2021/11/22 13:30:41;;;;;;;30.10;13.63;;;;;;;;;;5024357;28;20026;-64
2021/11/22 13:33:08;;;;;;;27.05;12.88;;;;;;;;;;5027239;28;20033;-63
2021/11/22 13:35:33;;;;;;;25.88;12.73;;;;;;;;;;5029959;28;20021;-63
2021/11/22 13:38:06;;;;;;;24.90;13.32;;;;;;;;;;5024556;28;20030;-63
2021/11/22 13:40:31;;;;;;;27.05;14.02;;;;;;;;;;5021735;28;20051;-64
2021/11/22 13:43:07;;;;;;;28.95;14.25;;;;;;;;;;5022604;28;20021;-64
2021/11/22 13:45:33;;;;;;;27.65;13.45;;;;;;;;;;5021985;28;20029;-64
2021/11/22 13:47:58;;;;;;;28.75;14.18;;;;;;;;;;5025988;28;20022;-64
2021/11/22 13:50:23;;;;;;;25.20;13.52;;;;;;;;;;5026633;28;20025;-64
2021/11/22 13:52:49;;;;;;;24.42;12.85;;;;;;;;;;5029172;28;20025;-66
2021/11/22 13:55:14;;;;;;;29.25;13.43;;;;;;;;;;5025496;28;20393;-66
2021/11/22 13:57:39;;;;;;;29.77;15.25;;;;;;;;;;5017845;28;20116;-65
2021/11/22 14:00:05;;;;;;;26.48;13.27;;;;;;;;;;5028859;28;20040;-64
2021/11/22 14:02:30;;;;;;;29.23;13.77;;;;;;;;;;5024723;28;20413;-65
2021/11/22 14:04:57;;;;;;;25.35;13.00;;;;;;;;;;5024028;28;20032;-65
2021/11/22 14:07:43;;;;;;;27.25;13.45;;;;;;;;;;5019933;28;20057;-65
2021/11/22 14:10:08;;;;;;;23.95;12.45;;;;;;;;;;5023297;28;20057;-62
2021/11/22 14:12:35;;;;;;;26.17;13.23;;;;;;;;;;5029704;28;20469;-64
2021/11/22 14:15:00;;;;;;;26.25;13.13;;;;;;;;;;5025083;28;20191;-64